Time;durP1;ratioP1;P1;durP2;ratioP2;P2;SDS_P1;SDS_P2;PMS_P1;PMS_P2;Temp;Humidity;BMP_temperature;BMP_pressure;BME280_temperature;BME280_humidity;BME280_pressure;Samples;Min_cycle;Max_cycle;Signal;HPM_P1;HPM_P2
2024/02/25 00:00:36;;;;;;;21.17;13.88;;;2.60;99.90;;;;;;5029078;28;20050;-69
2024/02/25 00:03:03;;;;;;;21.63;15.82;;;2.60;99.90;;;;;;5033359;28;20080;-69
2024/02/25 00:05:31;;;;;;;21.55;14.48;;;2.60;99.90;;;;;;5033027;28;20447;-68
2024/02/25 00:07:59;;;;;;;19.00;12.10;;;2.60;99.90;;;;;;5031765;28;20140;-68
2024/02/25 00:10:26;;;;;;;17.70;12.15;;;2.50;99.90;;;;;;5032719;28;20037;-68
2024/02/25 00:12:53;;;;;;;17.58;11.90;;;2.50;99.90;;;;;;5033184;28;20083;-67
2024/02/25 00:15:20;;;;;;;16.70;11.35;;;2.50;99.90;;;;;;5031145;28;20080;-68
2024/02/25 00:17:47;;;;;;;14.52;10.23;;;2.50;99.90;;;;;;5032495;28;20096;-68
2024/02/25 00:20:13;;;;;;;14.65;9.50;;;2.50;99.90;;;;;;5033254;28;20088;-68
2024/02/25 00:22:40;;;;;;;16.73;10.75;;;2.50;99.90;;;;;;5032826;28;20049;-68
2024/02/25 00:25:07;;;;;;;12.68;9.85;;;2.40;99.90;;;;;;5031479;28;20042;-68
2024/02/25 00:27:34;;;;;;;14.75;9.70;;;2.40;99.90;;;;;;5032926;28;20053;-69
2024/02/25 00:30:01;;;;;;;12.15;9.02;;;2.40;99.90;;;;;;5033306;28;20501;-68
2024/02/25 00:32:29;;;;;;;12.80;9.00;;;2.40;99.90;;;;;;5031513;28;20545;-69
2024/02/25 00:34:56;;;;;;;14.98;9.70;;;2.40;99.90;;;;;;5034293;28;20065;-69
2024/02/25 00:37:23;;;;;;;16.83;8.90;;;2.30;99.90;;;;;;5026486;28;20116;-68
2024/02/25 00:39:49;;;;;;;12.90;9.15;;;2.30;99.90;;;;;;5017122;28;20430;-68
2024/02/25 00:42:16;;;;;;;13.80;8.93;;;2.30;99.90;;;;;;5017306;28;20046;-68
2024/02/25 00:44:48;;;;;;;13.40;9.23;;;2.30;99.90;;;;;;5032125;28;20037;-68
2024/02/25 00:47:15;;;;;;;14.73;9.52;;;2.20;99.90;;;;;;5035087;28;20461;-67
2024/02/25 00:49:42;;;;;;;14.15;9.23;;;2.20;99.90;;;;;;5035262;28;20075;-68
2024/02/25 00:52:09;;;;;;;15.48;9.60;;;2.20;99.90;;;;;;5036470;28;20474;-68
2024/02/25 00:54:37;;;;;;;14.90;9.60;;;2.20;99.90;;;;;;5022371;28;20038;-68
2024/02/25 00:57:04;;;;;;;11.75;9.30;;;2.20;99.90;;;;;;5016788;28;20042;-68
2024/02/25 00:59:31;;;;;;;18.15;9.65;;;2.20;99.90;;;;;;5016283;28;20042;-68
2024/02/25 01:01:58;;;;;;;16.20;10.38;;;2.10;99.90;;;;;;5020357;28;20042;-68
2024/02/25 01:04:24;;;;;;;13.55;9.60;;;2.10;99.90;;;;;;5016741;28;20041;-68
2024/02/25 01:06:51;;;;;;;14.93;9.63;;;2.10;99.90;;;;;;5017677;28;20046;-66
2024/02/25 01:09:18;;;;;;;12.75;9.52;;;2.10;99.90;;;;;;5036379;28;20037;-66
2024/02/25 01:11:45;;;;;;;13.27;10.02;;;2.00;99.90;;;;;;5016067;28;20041;-67
2024/02/25 01:14:14;;;;;;;16.13;9.77;;;2.00;99.90;;;;;;5014655;28;20046;-65
2024/02/25 01:16:41;;;;;;;14.50;9.68;;;2.00;99.90;;;;;;5015821;28;20038;-68
2024/02/25 01:19:08;;;;;;;13.82;9.25;;;2.00;99.90;;;;;;5016248;28;20042;-66
2024/02/25 01:21:35;;;;;;;12.20;9.40;;;2.00;99.90;;;;;;5031986;28;20387;-69
2024/02/25 01:24:02;;;;;;;14.93;8.57;;;1.90;99.90;;;;;;5036258;28;20045;-69
2024/02/25 01:26:29;;;;;;;13.63;8.65;;;1.90;99.90;;;;;;5035033;28;20467;-69
2024/02/25 01:28:56;;;;;;;14.05;8.88;;;1.90;99.90;;;;;;5035469;28;20041;-69
2024/02/25 01:31:23;;;;;;;16.15;8.88;;;1.90;99.90;;;;;;5035484;28;20053;-69
2024/02/25 01:33:53;;;;;;;11.45;8.93;;;1.90;99.90;;;;;;5034560;28;20415;-69
2024/02/25 01:36:20;;;;;;;14.45;8.80;;;1.90;99.90;;;;;;5020636;28;20038;-66
2024/02/25 01:38:47;;;;;;;12.77;9.20;;;1.80;99.90;;;;;;5015416;28;20045;-66
2024/02/25 01:41:13;;;;;;;14.43;9.27;;;1.80;99.90;;;;;;5015743;28;20042;-66
2024/02/25 01:43:40;;;;;;;13.63;9.15;;;1.80;99.90;;;;;;5016025;28;20049;-66
2024/02/25 01:46:07;;;;;;;13.05;8.82;;;1.80;99.90;;;;;;5026675;28;20042;-66
2024/02/25 01:48:34;;;;;;;15.43;9.18;;;1.80;99.90;;;;;;5035690;28;20045;-65
2024/02/25 01:51:02;;;;;;;10.90;8.40;;;1.80;99.90;;;;;;5035035;28;20128;-66
2024/02/25 01:53:31;;;;;;;12.68;8.63;;;1.80;99.90;;;;;;5033860;28;20038;-66
2024/02/25 01:55:58;;;;;;;10.98;8.40;;;1.80;99.90;;;;;;5035316;28;20052;-66
2024/02/25 01:58:25;;;;;;;13.70;9.15;;;1.80;99.90;;;;;;5034135;28;20471;-65
2024/02/25 02:00:52;;;;;;;12.77;8.73;;;1.70;99.90;;;;;;5035375;28;20488;-66
2024/02/25 02:03:19;;;;;;;14.13;8.88;;;1.70;99.90;;;;;;5027153;28;20042;-66
2024/02/25 02:05:46;;;;;;;15.75;9.13;;;1.70;99.90;;;;;;5014806;28;20048;-66
2024/02/25 02:08:13;;;;;;;14.95;9.60;;;1.70;99.90;;;;;;5015151;28;20104;-66
2024/02/25 02:10:40;;;;;;;11.57;8.57;;;1.70;99.90;;;;;;5015102;28;20479;-66
2024/02/25 02:13:07;;;;;;;10.93;8.32;;;1.70;99.90;;;;;;5017067;28;20046;-69
2024/02/25 02:15:34;;;;;;;11.82;8.43;;;1.70;99.90;;;;;;5013346;28;20046;-69
2024/02/25 02:18:03;;;;;;;12.07;8.77;;;1.70;99.90;;;;;;5015506;28;20073;-69
2024/02/25 02:20:31;;;;;;;19.08;9.30;;;1.70;99.90;;;;;;5014943;28;20046;-69
2024/02/25 02:22:59;;;;;;;11.52;9.05;;;1.70;99.90;;;;;;5030540;28;20431;-66
2024/02/25 02:25:26;;;;;;;12.48;9.40;;;1.70;99.90;;;;;;5034335;28;20045;-66
2024/02/25 02:27:53;;;;;;;13.23;8.82;;;1.50;99.90;;;;;;5033217;28;20112;-66
2024/02/25 02:30:20;;;;;;;13.07;8.50;;;1.50;99.90;;;;;;5034526;28;20041;-65
2024/02/25 02:32:46;;;;;;;14.10;9.45;;;1.60;99.90;;;;;;5019518;28;20041;-65
2024/02/25 02:35:14;;;;;;;11.93;8.95;;;1.60;99.90;;;;;;5013115;28;20042;-65
2024/02/25 02:37:40;;;;;;;17.52;9.73;;;1.60;99.90;;;;;;5014860;28;20046;-65
2024/02/25 02:40:07;;;;;;;14.38;9.68;;;1.60;99.90;;;;;;5014934;28;20046;-65
2024/02/25 02:42:34;;;;;;;14.85;8.25;;;1.60;99.90;;;;;;5027547;28;20049;-65
2024/02/25 02:45:03;;;;;;;15.32;8.98;;;1.50;99.90;;;;;;5034455;28;20049;-65
2024/02/25 02:47:31;;;;;;;15.25;9.05;;;1.50;99.90;;;;;;5033125;28;20038;-65
2024/02/25 02:49:58;;;;;;;10.35;7.60;;;1.50;99.90;;;;;;5028736;28;20475;-65
2024/02/25 02:52:24;;;;;;;12.38;8.80;;;1.50;99.90;;;;;;5013031;28;20053;-66
2024/02/25 02:54:51;;;;;;;14.88;8.55;;;1.50;99.90;;;;;;5014193;28;20073;-65
2024/02/25 02:57:18;;;;;;;13.65;8.82;;;1.50;99.90;;;;;;5014390;28;20474;-65
2024/02/25 02:59:45;;;;;;;13.38;8.40;;;1.50;99.90;;;;;;5017571;28;20037;-65
2024/02/25 03:02:12;;;;;;;13.55;8.07;;;1.50;99.90;;;;;;5033839;28;20041;-68
2024/02/25 03:04:39;;;;;;;10.68;8.30;;;1.40;99.90;;;;;;5033914;28;20475;-68
2024/02/25 03:07:05;;;;;;;10.77;8.45;;;1.40;99.90;;;;;;5033723;28;20422;-66
2024/02/25 03:09:32;;;;;;;12.02;8.57;;;1.40;99.90;;;;;;5031206;28;20045;-66
2024/02/25 03:11:59;;;;;;;10.93;8.07;;;1.50;99.90;;;;;;5033690;28;20046;-66
2024/02/25 03:14:26;;;;;;;14.75;8.90;;;1.40;99.90;;;;;;5032685;28;20081;-66
2024/02/25 03:16:55;;;;;;;10.63;7.85;;;1.40;99.90;;;;;;5033478;28;20038;-66
2024/02/25 03:19:22;;;;;;;15.32;8.88;;;1.40;99.90;;;;;;5020472;28;20045;-69
2024/02/25 03:21:50;;;;;;;13.80;8.85;;;1.40;99.90;;;;;;5012681;28;20046;-69
2024/02/25 03:24:16;;;;;;;14.80;9.13;;;1.40;99.90;;;;;;5013859;28;20046;-69
2024/02/25 03:26:47;;;;;;;12.40;7.90;;;1.40;99.90;;;;;;5013681;28;20104;-69
2024/02/25 03:29:14;;;;;;;14.38;8.48;;;1.30;99.90;;;;;;5022887;28;20049;-69
2024/02/25 03:31:41;;;;;;;12.35;8.90;;;1.40;99.90;;;;;;5021845;28;20048;-69
2024/02/25 03:34:08;;;;;;;13.73;8.48;;;1.30;99.90;;;;;;5033743;28;20065;-69
2024/02/25 03:36:35;;;;;;;14.30;8.35;;;1.30;99.90;;;;;;5017034;28;20121;-69
2024/02/25 03:39:01;;;;;;;12.75;9.18;;;1.30;99.90;;;;;;5022640;28;20117;-69
2024/02/25 03:41:31;;;;;;;14.00;8.98;;;1.20;99.90;;;;;;5014091;28;20470;-69
2024/02/25 03:43:58;;;;;;;13.00;8.68;;;1.30;99.90;;;;;;5032202;28;20486;-69
2024/02/25 03:46:24;;;;;;;16.90;9.05;;;1.20;99.90;;;;;;5033015;28;20041;-69
2024/02/25 03:48:51;;;;;;;11.57;8.80;;;1.20;99.90;;;;;;5033784;28;20045;-68
2024/02/25 03:51:18;;;;;;;14.80;8.25;;;1.20;99.90;;;;;;5033693;28;20168;-68
2024/02/25 03:53:45;;;;;;;12.30;9.00;;;1.20;99.90;;;;;;5032408;28;20117;-69
2024/02/25 03:56:12;;;;;;;13.00;9.07;;;1.20;99.90;;;;;;5015512;28;20076;-68
2024/02/25 03:58:39;;;;;;;14.30;9.32;;;1.20;99.90;;;;;;5033547;28;20061;-68
2024/02/25 04:01:06;;;;;;;12.48;9.00;;;1.10;99.90;;;;;;5028670;28;20391;-69
2024/02/25 04:03:33;;;;;;;13.07;9.20;;;1.10;99.90;;;;;;5025242;28;20091;-68
2024/02/25 04:05:59;;;;;;;15.25;8.75;;;1.20;99.90;;;;;;5032145;28;20124;-68
2024/02/25 04:08:26;;;;;;;14.23;8.75;;;1.20;99.90;;;;;;5033620;28;20120;-68
2024/02/25 04:10:53;;;;;;;11.60;8.65;;;1.20;99.90;;;;;;5037598;28;20124;-65
2024/02/25 04:13:20;;;;;;;13.90;8.70;;;1.20;99.90;;;;;;5037276;28;20049;-65
2024/02/25 04:15:47;;;;;;;12.23;8.60;;;1.20;99.90;;;;;;5028691;28;20137;-65
2024/02/25 04:18:14;;;;;;;13.70;8.68;;;1.10;99.90;;;;;;5017125;28;20096;-65
2024/02/25 04:20:41;;;;;;;12.45;8.75;;;1.10;99.90;;;;;;5017442;28;20465;-67
2024/02/25 04:23:08;;;;;;;14.65;8.30;;;1.20;99.90;;;;;;5017134;28;20049;-67
2024/02/25 04:25:34;;;;;;;13.93;9.25;;;1.20;99.90;;;;;;5036915;28;20442;-67
2024/02/25 04:28:01;;;;;;;12.02;8.48;;;1.10;99.90;;;;;;5036967;28;20049;-68
2024/02/25 04:30:29;;;;;;;12.18;8.77;;;1.20;99.90;;;;;;5036985;28;20054;-69
2024/02/25 04:32:56;;;;;;;14.73;8.02;;;1.20;99.90;;;;;;5018946;28;20574;-68
2024/02/25 04:35:23;;;;;;;11.55;8.40;;;1.10;99.90;;;;;;5036477;28;20057;-69
2024/02/25 04:37:51;;;;;;;13.88;8.05;;;1.10;99.90;;;;;;5036801;28;20044;-68
2024/02/25 04:40:17;;;;;;;12.05;8.52;;;1.10;99.90;;;;;;5036971;28;20064;-66
2024/02/25 04:42:45;;;;;;;14.63;8.23;;;1.00;99.90;;;;;;5036447;28;20038;-66
2024/02/25 04:45:11;;;;;;;15.15;8.38;;;1.00;99.90;;;;;;5036202;28;20041;-65
2024/02/25 04:47:38;;;;;;;13.38;8.95;;;1.00;99.90;;;;;;5036303;28;20092;-66
2024/02/25 04:50:05;;;;;;;13.75;9.20;;;1.00;99.90;;;;;;5035924;28;20033;-65
2024/02/25 04:52:32;;;;;;;16.20;9.02;;;1.00;99.90;;;;;;5035287;28;20050;-67
2024/02/25 04:54:59;;;;;;;13.85;8.73;;;0.90;99.90;;;;;;5034606;28;20544;-68
2024/02/25 04:57:25;;;;;;;13.85;8.82;;;0.90;99.90;;;;;;5023692;28;20038;-65
2024/02/25 04:59:52;;;;;;;13.50;8.80;;;0.90;99.90;;;;;;5014991;28;20034;-65
2024/02/25 05:02:19;;;;;;;10.43;8.02;;;0.90;99.90;;;;;;5022973;28;20040;-65
2024/02/25 05:04:46;;;;;;;12.13;8.07;;;0.90;99.90;;;;;;5035560;28;20068;-65
2024/02/25 05:07:12;;;;;;;16.73;9.48;;;0.80;99.90;;;;;;5035985;28;20092;-65
2024/02/25 05:09:39;;;;;;;13.52;8.88;;;0.80;99.90;;;;;;5035852;28;20045;-65
2024/02/25 05:12:06;;;;;;;12.85;8.82;;;0.80;99.90;;;;;;5028996;28;20042;-65
2024/02/25 05:14:33;;;;;;;16.60;10.73;;;0.80;99.90;;;;;;5015950;28;20406;-65
2024/02/25 05:17:00;;;;;;;14.80;9.30;;;0.80;99.90;;;;;;5016299;28;20045;-65
2024/02/25 05:19:27;;;;;;;16.27;9.15;;;0.80;99.90;;;;;;5020988;28;20084;-65
2024/02/25 05:21:54;;;;;;;13.30;9.60;;;0.70;99.90;;;;;;5035551;28;20091;-65
2024/02/25 05:24:21;;;;;;;19.85;10.02;;;0.70;99.90;;;;;;5035735;28;20041;-65
2024/02/25 05:26:49;;;;;;;12.93;8.95;;;0.70;99.90;;;;;;5035395;28;20080;-65
2024/02/25 05:29:15;;;;;;;14.23;9.13;;;0.70;99.90;;;;;;5017926;28;20120;-65
2024/02/25 05:31:42;;;;;;;12.20;8.93;;;0.70;99.90;;;;;;5018844;28;20052;-65
2024/02/25 05:34:09;;;;;;;15.35;9.23;;;0.70;99.90;;;;;;5035752;28;20041;-65
2024/02/25 05:36:36;;;;;;;12.05;9.75;;;0.70;99.90;;;;;;5035354;28;20041;-65
2024/02/25 05:39:04;;;;;;;13.25;9.30;;;0.70;99.90;;;;;;5035717;28;20049;-65
2024/02/25 05:41:31;;;;;;;13.77;9.63;;;0.70;99.90;;;;;;5035137;28;20039;-65
2024/02/25 05:43:58;;;;;;;12.65;8.35;;;0.60;99.90;;;;;;5035608;28;20053;-65
2024/02/25 05:46:25;;;;;;;14.60;9.30;;;0.70;99.90;;;;;;5033554;28;20076;-65
2024/02/25 05:48:52;;;;;;;12.32;9.20;;;0.70;99.90;;;;;;5024773;28;20049;-65
2024/02/25 05:51:19;;;;;;;12.02;9.38;;;0.70;99.90;;;;;;5034338;28;20120;-65
2024/02/25 05:53:45;;;;;;;14.50;9.90;;;0.70;99.90;;;;;;5031522;28;20045;-65
2024/02/25 05:56:13;;;;;;;15.95;8.75;;;0.70;99.90;;;;;;5015570;28;20068;-65
2024/02/25 05:58:39;;;;;;;15.00;9.57;;;0.70;99.90;;;;;;5015094;28;20056;-65
2024/02/25 06:01:07;;;;;;;14.40;9.32;;;0.70;99.90;;;;;;5015092;28;20447;-65
2024/02/25 06:03:35;;;;;;;12.80;9.23;;;0.70;99.90;;;;;;5013728;28;20042;-65
2024/02/25 06:06:01;;;;;;;12.82;9.13;;;0.70;99.90;;;;;;5015104;28;20046;-65
2024/02/25 06:08:28;;;;;;;12.27;8.93;;;0.70;99.90;;;;;;5015227;28;20046;-65
2024/02/25 06:10:55;;;;;;;13.48;9.18;;;0.70;99.90;;;;;;5015240;28;20065;-65
2024/02/25 06:13:22;;;;;;;12.70;8.63;;;0.70;99.90;;;;;;5018869;28;20041;-65
2024/02/25 06:15:49;;;;;;;12.15;9.02;;;0.70;99.90;;;;;;5023141;28;20137;-65
2024/02/25 06:18:16;;;;;;;11.07;8.95;;;0.70;99.90;;;;;;5033576;28;20083;-65
2024/02/25 06:20:43;;;;;;;14.50;8.05;;;0.70;99.90;;;;;;5027728;28;20046;-65
2024/02/25 06:23:10;;;;;;;14.43;9.52;;;0.70;99.90;;;;;;5014930;28;20153;-65
2024/02/25 06:25:37;;;;;;;11.95;8.38;;;0.60;99.90;;;;;;5014679;28;20065;-66
2024/02/25 06:28:04;;;;;;;16.17;9.43;;;0.60;99.90;;;;;;5014897;28;20061;-65
2024/02/25 06:30:30;;;;;;;13.82;8.80;;;0.60;99.90;;;;;;5014716;28;20069;-65
2024/02/25 06:32:57;;;;;;;14.38;8.85;;;0.60;99.90;;;;;;5020060;28;20120;-65
2024/02/25 06:35:24;;;;;;;14.60;9.38;;;0.60;99.90;;;;;;5034032;28;20041;-65
2024/02/25 06:37:51;;;;;;;13.88;9.05;;;0.60;99.90;;;;;;5034266;28;20532;-65
2024/02/25 06:40:19;;;;;;;13.48;8.77;;;0.60;99.90;;;;;;5033397;28;20128;-65
2024/02/25 06:42:45;;;;;;;12.48;8.82;;;0.60;99.90;;;;;;5034179;28;20124;-66
2024/02/25 06:45:13;;;;;;;11.65;9.00;;;0.60;99.90;;;;;;5034557;28;20069;-65
2024/02/25 06:47:40;;;;;;;11.95;9.15;;;0.60;99.90;;;;;;5034013;28;20045;-65
2024/02/25 06:50:08;;;;;;;12.23;8.55;;;0.60;99.90;;;;;;5034213;28;20037;-66
2024/02/25 06:52:36;;;;;;;14.90;8.98;;;0.50;99.90;;;;;;5034216;28;20045;-65
2024/02/25 06:55:04;;;;;;;12.73;9.45;;;0.50;99.90;;;;;;5032758;28;20037;-67
2024/02/25 06:57:31;;;;;;;14.50;10.23;;;0.50;99.90;;;;;;5033794;28;20492;-67
2024/02/25 06:59:59;;;;;;;13.63;9.30;;;0.60;99.90;;;;;;5033941;28;20163;-68
2024/02/25 07:02:26;;;;;;;13.25;8.68;;;0.60;99.90;;;;;;5033786;28;20045;-68
2024/02/25 07:04:53;;;;;;;11.57;8.32;;;0.60;99.90;;;;;;5033712;28;20041;-68
2024/02/25 07:07:21;;;;;;;12.95;8.23;;;0.60;99.90;;;;;;5021021;28;20045;-67
2024/02/25 07:09:53;;;;;;;9.93;7.72;;;0.60;99.90;;;;;;5033755;28;20077;-67
2024/02/25 07:12:20;;;;;;;11.35;8.02;;;0.60;99.90;;;;;;5034098;28;20052;-65
2024/02/25 07:14:47;;;;;;;10.88;8.15;;;0.60;99.90;;;;;;5033804;28;20049;-65
2024/02/25 07:17:13;;;;;;;9.55;7.88;;;0.70;99.90;;;;;;5035465;28;20045;-65
2024/02/25 07:19:40;;;;;;;12.68;8.85;;;0.70;99.90;;;;;;5033589;28;20533;-65
2024/02/25 07:22:10;;;;;;;11.32;7.28;;;0.80;99.90;;;;;;5013876;28;20120;-65
2024/02/25 07:24:40;;;;;;;11.75;8.43;;;0.80;99.90;;;;;;5014200;28;20046;-65
2024/02/25 07:27:08;;;;;;;8.93;7.50;;;0.80;99.90;;;;;;5013953;28;20077;-65
2024/02/25 07:29:36;;;;;;;14.43;8.68;;;0.80;99.90;;;;;;5013722;28;20038;-65
2024/02/25 07:32:06;;;;;;;10.25;7.93;;;0.90;99.90;;;;;;5017016;28;20548;-65
2024/02/25 07:34:33;;;;;;;12.27;8.20;;;0.90;99.90;;;;;;5021395;28;20035;-66
2024/02/25 07:37:00;;;;;;;12.55;8.00;;;1.00;99.90;;;;;;5013686;28;20066;-61
2024/02/25 07:39:27;;;;;;;10.13;7.57;;;1.00;99.90;;;;;;5023400;28;20044;-67
2024/02/25 07:41:54;;;;;;;13.18;8.48;;;1.00;99.90;;;;;;5023679;28;20041;-66
2024/02/25 07:44:21;;;;;;;10.15;8.23;;;1.10;99.90;;;;;;5032692;28;20514;-67
2024/02/25 07:46:47;;;;;;;11.93;7.63;;;1.20;99.90;;;;;;5033482;28;20479;-67
2024/02/25 07:49:14;;;;;;;13.00;7.68;;;1.40;99.90;;;;;;5033514;28;20505;-67
2024/02/25 07:51:41;;;;;;;10.07;7.70;;;1.40;99.90;;;;;;5029276;28;20041;-67
2024/02/25 07:54:08;;;;;;;10.07;7.85;;;1.50;99.90;;;;;;5012444;28;20042;-67
2024/02/25 07:56:35;;;;;;;11.70;7.53;;;1.60;99.90;;;;;;5013128;28;20092;-67
2024/02/25 07:59:02;;;;;;;10.70;7.30;;;1.60;99.90;;;;;;5032584;28;20037;-64
2024/02/25 08:01:29;;;;;;;10.82;7.45;;;1.70;99.90;;;;;;5033408;28;20045;-65
2024/02/25 08:03:59;;;;;;;12.18;7.57;;;1.70;99.90;;;;;;5033483;28;20559;-65
2024/02/25 08:06:26;;;;;;;9.27;7.25;;;1.80;99.90;;;;;;5030026;28;20128;-65
2024/02/25 08:08:53;;;;;;;10.25;7.28;;;1.90;99.90;;;;;;5029019;28;20076;-65
2024/02/25 08:11:20;;;;;;;10.75;6.72;;;1.90;99.90;;;;;;5031375;28;20175;-64
2024/02/25 08:13:47;;;;;;;9.10;7.32;;;2.00;99.90;;;;;;5033179;28;20045;-65
2024/02/25 08:16:13;;;;;;;10.23;6.75;;;2.00;99.90;;;;;;5026275;28;20053;-65
2024/02/25 08:18:40;;;;;;;11.45;7.45;;;2.10;99.90;;;;;;5017911;28;20534;-65
2024/02/25 08:21:07;;;;;;;10.90;7.15;;;2.10;99.90;;;;;;5017488;28;20092;-65
2024/02/25 08:23:34;;;;;;;10.13;6.10;;;2.20;99.90;;;;;;5024718;28;20423;-64
2024/02/25 08:26:02;;;;;;;8.77;5.72;;;2.30;99.90;;;;;;5030608;28;20045;-64
2024/02/25 08:28:30;;;;;;;9.43;5.65;;;2.30;99.90;;;;;;5033068;28;20100;-64
2024/02/25 08:30:56;;;;;;;8.55;5.82;;;2.40;99.90;;;;;;5033331;28;20049;-64
2024/02/25 08:33:23;;;;;;;7.57;5.45;;;2.50;99.90;;;;;;5030508;28;20052;-64
2024/02/25 08:35:50;;;;;;;7.00;5.57;;;2.60;99.90;;;;;;5021806;28;20534;-65
2024/02/25 08:38:17;;;;;;;5.72;4.70;;;2.70;99.90;;;;;;5033340;28;20415;-65
2024/02/25 08:40:44;;;;;;;5.72;4.57;;;2.80;99.90;;;;;;5025297;28;20462;-65
2024/02/25 08:43:10;;;;;;;6.78;4.50;;;2.80;99.90;;;;;;5015387;28;20038;-63
2024/02/25 08:45:37;;;;;;;7.60;4.57;;;2.90;99.90;;;;;;5012953;28;20045;-65
2024/02/25 08:48:04;;;;;;;7.47;4.57;;;3.00;99.90;;;;;;5032561;28;20048;-65
2024/02/25 08:50:31;;;;;;;6.82;5.00;;;3.10;99.90;;;;;;5032604;28;20132;-64
2024/02/25 08:52:58;;;;;;;6.95;4.50;;;3.20;99.90;;;;;;5032603;28;20141;-65
2024/02/25 08:55:25;;;;;;;5.70;4.22;;;3.30;99.90;;;;;;5031659;28;20087;-65
2024/02/25 08:57:51;;;;;;;7.47;4.00;;;3.40;99.90;;;;;;5019684;28;20044;-65
2024/02/25 09:00:18;;;;;;;6.65;3.90;;;3.40;99.90;;;;;;5016498;28;20048;-64
2024/02/25 09:02:45;;;;;;;7.07;4.22;;;3.50;99.90;;;;;;5016072;28;20128;-65
2024/02/25 09:05:12;;;;;;;6.53;4.00;;;3.50;99.90;;;;;;5016183;28;20482;-65
2024/02/25 09:07:39;;;;;;;5.78;3.95;;;3.60;99.90;;;;;;5016385;28;20083;-65
2024/02/25 09:10:08;;;;;;;4.70;3.80;;;3.70;99.90;;;;;;5016198;28;20042;-65
2024/02/25 09:12:37;;;;;;;6.35;3.88;;;3.80;99.90;;;;;;5016172;28;20072;-65
2024/02/25 09:15:04;;;;;;;6.10;3.70;;;4.00;99.90;;;;;;5015868;28;20073;-65
2024/02/25 09:17:31;;;;;;;6.10;3.20;;;4.10;99.90;;;;;;5016410;28;20076;-65
2024/02/25 09:19:58;;;;;;;4.05;3.17;;;4.20;99.90;;;;;;5016182;28;20038;-65
2024/02/25 09:22:25;;;;;;;5.22;3.25;;;4.30;99.90;;;;;;4998414;28;20145;-65
2024/02/25 09:24:52;;;;;;;5.75;3.13;;;4.50;99.90;;;;;;5016062;28;20070;-67
2024/02/25 09:27:19;;;;;;;3.97;2.88;;;4.60;99.90;;;;;;5015790;28;20056;-67
2024/02/25 09:29:47;;;;;;;5.55;3.08;;;4.80;99.90;;;;;;5015552;28;20048;-67
2024/02/25 09:32:14;;;;;;;5.65;3.40;;;5.00;99.90;;;;;;5015673;28;20099;-67
2024/02/25 09:34:40;;;;;;;4.65;3.38;;;5.00;99.90;;;;;;5015062;28;20053;-67
2024/02/25 09:37:08;;;;;;;5.75;3.38;;;5.10;99.90;;;;;;5014467;28;20365;-67
2024/02/25 09:39:34;;;;;;;4.38;3.45;;;5.10;99.90;;;;;;5015956;28;20042;-67
2024/02/25 09:42:01;;;;;;;5.75;3.45;;;5.10;99.90;;;;;;5015989;28;20060;-67
2024/02/25 09:44:28;;;;;;;5.75;3.03;;;5.10;99.90;;;;;;5014635;28;20085;-67
2024/02/25 09:46:55;;;;;;;7.07;2.60;;;5.20;99.90;;;;;;5014288;28;20391;-65
2024/02/25 09:49:27;;;;;;;5.88;2.95;;;5.20;99.90;;;;;;5015859;28;20046;-66
2024/02/25 09:51:54;;;;;;;4.53;2.65;;;5.30;99.90;;;;;;5015833;28;20052;-65
2024/02/25 09:54:21;;;;;;;4.18;2.80;;;5.40;99.90;;;;;;5015192;28;20050;-65
2024/02/25 09:56:51;;;;;;;4.18;2.70;;;5.40;99.90;;;;;;5015091;28;20073;-65
2024/02/25 09:59:18;;;;;;;5.30;2.42;;;5.60;99.90;;;;;;5015761;28;20466;-65
2024/02/25 10:01:47;;;;;;;4.53;2.72;;;5.60;99.90;;;;;;5015013;28;20092;-65
2024/02/25 10:04:14;;;;;;;4.03;2.63;;;5.70;99.90;;;;;;5015257;28;20427;-68
2024/02/25 10:06:41;;;;;;;5.75;2.30;;;5.90;99.90;;;;;;5014625;28;20049;-68
2024/02/25 10:09:14;;;;;;;7.82;3.25;;;5.90;99.90;;;;;;5015193;28;20038;-68
2024/02/25 10:11:41;;;;;;;3.75;1.95;;;5.90;99.90;;;;;;5014963;28;20045;-68
2024/02/25 10:14:08;;;;;;;5.03;2.40;;;5.90;99.90;;;;;;5014611;28;20037;-65
2024/02/25 10:16:35;;;;;;;4.63;2.05;;;5.90;99.90;;;;;;5013540;28;20124;-65
2024/02/25 10:19:01;;;;;;;5.10;2.53;;;5.90;99.90;;;;;;5014870;28;20112;-65
2024/02/25 10:21:28;;;;;;;8.38;2.70;;;5.90;99.90;;;;;;5014722;28;20120;-65
2024/02/25 10:23:55;;;;;;;4.70;2.30;;;6.00;99.90;;;;;;5015317;28;20038;-66
2024/02/25 10:26:23;;;;;;;5.93;2.28;;;6.00;99.90;;;;;;5014708;28;20452;-66
2024/02/25 10:28:50;;;;;;;5.50;1.88;;;6.10;99.90;;;;;;5014675;28;20092;-65
2024/02/25 10:31:17;;;;;;;6.30;1.77;;;6.20;99.90;;;;;;5014802;28;20069;-66
2024/02/25 10:33:44;;;;;;;5.45;2.00;;;6.20;99.90;;;;;;5013661;28;20442;-67
2024/02/25 10:36:19;;;;;;;4.45;1.95;;;6.30;99.90;;;;;;5014407;28;20089;-64
2024/02/25 10:38:46;;;;;;;5.28;1.70;;;6.40;99.90;;;;;;5013179;28;20406;-64
2024/02/25 10:41:14;;;;;;;5.63;1.80;;;6.40;99.90;;;;;;5013413;28;20033;-64
2024/02/25 10:43:41;;;;;;;8.60;2.03;;;6.50;99.90;;;;;;5014826;28;20049;-66
2024/02/25 10:46:08;;;;;;;6.47;1.75;;;6.60;99.90;;;;;;5014807;28;20046;-68
2024/02/25 10:48:34;;;;;;;7.63;2.13;;;6.70;99.90;;;;;;5014618;28;20050;-68
2024/02/25 10:51:01;;;;;;;10.40;1.80;;;6.80;99.90;;;;;;5014782;28;20491;-68
2024/02/25 10:53:28;;;;;;;6.15;1.90;;;7.00;99.90;;;;;;5013089;28;20068;-67
2024/02/25 10:55:57;;;;;;;11.68;1.85;;;7.00;99.90;;;;;;5014217;28;20475;-66
2024/02/25 10:58:30;;;;;;;12.27;1.77;;;7.10;99.90;;;;;;5012909;28;20112;-67
2024/02/25 11:00:57;;;;;;;7.22;2.83;;;7.20;99.90;;;;;;5014168;28;20061;-67
2024/02/25 11:03:24;;;;;;;10.05;2.17;;;7.30;99.90;;;;;;5014563;28;20066;-68
2024/02/25 11:05:51;;;;;;;10.02;1.75;;;7.30;99.90;;;;;;5012659;28;20049;-68
2024/02/25 11:08:18;;;;;;;10.70;2.13;;;7.30;99.90;;;;;;5014126;28;20368;-68
2024/02/25 11:10:45;;;;;;;7.72;2.00;;;7.40;99.90;;;;;;5012912;28;20050;-68
2024/02/25 11:13:12;;;;;;;7.30;2.13;;;7.50;99.90;;;;;;5014096;28;20124;-67
2024/02/25 11:15:39;;;;;;;8.70;1.92;;;7.50;99.90;;;;;;5012445;28;20049;-68
2024/02/25 11:18:06;;;;;;;10.15;2.20;;;7.60;99.90;;;;;;4996770;28;20121;-64
2024/02/25 11:20:34;;;;;;;8.65;2.08;;;7.70;99.90;;;;;;5014263;28;20401;-64
2024/02/25 11:23:01;;;;;;;11.00;2.95;;;7.70;99.90;;;;;;5013786;28;20112;-63
2024/02/25 11:25:28;;;;;;;10.82;2.60;;;7.80;99.90;;;;;;5013533;28;20116;-63
2024/02/25 11:27:55;;;;;;;10.65;2.38;;;7.90;99.90;;;;;;5012880;28;20468;-63
2024/02/25 11:30:21;;;;;;;12.40;3.30;;;8.00;99.90;;;;;;5013582;28;20053;-64
2024/02/25 11:32:48;;;;;;;8.18;2.60;;;8.10;99.90;;;;;;5012588;28;20054;-64
2024/02/25 11:35:17;;;;;;;6.93;2.10;;;8.20;99.90;;;;;;5012705;28;20062;-65
2024/02/25 11:37:44;;;;;;;13.85;2.70;;;8.30;99.90;;;;;;5013693;28;20041;-64
2024/02/25 11:40:11;;;;;;;10.18;2.42;;;8.30;99.90;;;;;;5014038;28;20046;-68
2024/02/25 11:42:38;;;;;;;11.43;2.78;;;8.30;99.90;;;;;;5013735;28;20100;-68
2024/02/25 11:45:05;;;;;;;8.50;2.25;;;8.30;99.90;;;;;;5013516;28;20052;-68
2024/02/25 11:47:32;;;;;;;9.98;2.40;;;8.40;99.90;;;;;;5012841;28;20038;-68
2024/02/25 11:49:59;;;;;;;14.73;2.83;;;8.40;99.90;;;;;;4996029;28;20045;-68
2024/02/25 11:52:26;;;;;;;11.45;2.55;;;8.30;99.90;;;;;;5013438;28;20054;-68
2024/02/25 11:54:53;;;;;;;10.20;2.70;;;8.40;99.90;;;;;;5013692;28;20486;-68
2024/02/25 11:57:20;;;;;;;10.48;2.45;;;8.40;99.90;;;;;;5013940;28;20042;-68
2024/02/25 11:59:46;;;;;;;11.07;2.60;;;8.50;99.90;;;;;;5013884;28;20034;-67
2024/02/25 12:02:13;;;;;;;11.20;2.42;;;8.60;99.90;;;;;;5013486;28;20117;-65
2024/02/25 12:04:40;;;;;;;10.35;2.50;;;8.60;99.90;;;;;;5013310;28;20066;-65
2024/02/25 12:07:07;;;;;;;8.05;2.30;;;8.60;99.90;;;;;;5011927;28;20038;-65
2024/02/25 12:09:34;;;;;;;11.50;2.67;;;8.60;99.90;;;;;;5013606;28;20419;-65
2024/02/25 12:12:01;;;;;;;9.43;3.00;;;8.60;99.90;;;;;;5013553;28;20124;-65
2024/02/25 12:14:28;;;;;;;12.82;3.00;;;8.60;99.90;;;;;;5013418;28;20483;-67
2024/02/25 12:16:55;;;;;;;12.20;2.50;;;8.60;99.90;;;;;;5013344;28;20092;-67
2024/02/25 12:19:24;;;;;;;9.82;2.58;;;8.60;99.90;;;;;;5013484;28;20049;-67
2024/02/25 12:21:51;;;;;;;7.78;2.17;;;8.60;99.90;;;;;;5013467;28;20493;-67
2024/02/25 12:24:18;;;;;;;9.05;2.20;;;8.70;99.90;;;;;;5013762;28;20361;-67
2024/02/25 12:26:45;;;;;;;9.40;2.13;;;8.80;99.90;;;;;;5013583;28;20045;-67
2024/02/25 12:29:12;;;;;;;8.63;2.55;;;8.80;99.90;;;;;;5013014;28;20498;-66
2024/02/25 12:31:38;;;;;;;16.05;2.78;;;8.90;99.90;;;;;;5017186;28;20038;-67
2024/02/25 12:34:05;;;;;;;8.20;2.20;;;8.90;99.90;;;;;;5017515;28;20038;-66
2024/02/25 12:36:33;;;;;;;10.73;1.90;;;8.80;99.90;;;;;;5015894;28;20044;-67
2024/02/25 12:38:59;;;;;;;15.30;2.38;;;8.80;99.90;;;;;;5016980;28;20038;-66
2024/02/25 12:41:27;;;;;;;11.07;2.30;;;8.80;99.90;;;;;;5017290;28;20048;-67
2024/02/25 12:43:55;;;;;;;10.50;2.72;;;8.70;99.90;;;;;;5017313;28;20042;-67
2024/02/25 12:46:21;;;;;;;11.70;2.63;;;8.70;99.90;;;;;;5016617;28;20513;-67